Time;durP1;ratioP1;P1;durP2;ratioP2;P2;SDS_P1;SDS_P2;PMS_P1;PMS_P2;Temp;Humidity;BMP_temperature;BMP_pressure;BME280_temperature;BME280_humidity;BME280_pressure;Samples;Min_cycle;Max_cycle;Signal;HPM_P1;HPM_P2
2022/10/11 00:02:13;;;;;;;;;2.25;2.25;;;;;;;;5102314;27;51146;-45
2022/10/11 00:04:57;;;;;;;;;3.50;3.00;;;;;;;;5102025;27;51313;-45
2022/10/11 00:07:42;;;;;;;;;5.00;2.00;;;;;;;;5101807;27;51086;-45
2022/10/11 00:10:26;;;;;;;;;6.75;3.75;;;;;;;;5086767;27;51298;-45
2022/10/11 00:13:11;;;;;;;;;4.00;2.75;;;;;;;;5101835;27;51426;-46
2022/10/11 00:15:55;;;;;;;;;2.00;2.00;;;;;;;;5100105;27;51063;-46
2022/10/11 00:18:40;;;;;;;;;2.00;2.00;;;;;;;;5101237;27;51049;-45
2022/10/11 00:21:24;;;;;;;;;3.75;2.50;;;;;;;;5102361;27;51061;-45
2022/10/11 00:24:09;;;;;;;;;2.00;1.75;;;;;;;;5101970;27;51130;-46
2022/10/11 00:26:53;;;;;;;;;2.50;2.25;;;;;;;;5102150;27;51076;-45
2022/10/11 00:29:38;;;;;;;;;3.50;3.00;;;;;;;;5092240;27;51346;-46
2022/10/11 00:32:22;;;;;;;;;9.75;7.00;;;;;;;;5081313;27;51174;-45
2022/10/11 00:35:07;;;;;;;;;2.50;2.50;;;;;;;;5081823;27;50995;-45
2022/10/11 00:37:51;;;;;;;;;5.75;3.75;;;;;;;;5081311;27;51022;-45
2022/10/11 00:40:36;;;;;;;;;5.25;3.50;;;;;;;;5081429;27;51131;-45
2022/10/11 00:43:22;;;;;;;;;4.00;4.00;;;;;;;;5098661;27;51006;-45
2022/10/11 00:46:12;;;;;;;;;4.00;4.00;;;;;;;;5087000;27;51194;-46
2022/10/11 00:49:00;;;;;;;;;1.50;0.50;;;;;;;;5100130;27;51504;-46
2022/10/11 00:51:50;;;;;;;;;7.25;3.75;;;;;;;;5100791;27;51143;-45
2022/10/11 00:54:38;;;;;;;;;3.25;2.75;;;;;;;;5101681;27;51417;-45
2022/10/11 00:57:24;;;;;;;;;4.25;2.50;;;;;;;;5100278;27;51101;-46
2022/10/11 01:00:10;;;;;;;;;2.00;2.00;;;;;;;;5101476;27;51109;-46
2022/10/11 01:02:54;;;;;;;;;3.00;2.00;;;;;;;;5101103;27;51219;-46
2022/10/11 01:05:38;;;;;;;;;2.25;2.25;;;;;;;;5096956;27;51161;-45
2022/10/11 01:08:23;;;;;;;;;2.00;2.00;;;;;;;;5101113;27;51839;-46
2022/10/11 01:11:12;;;;;;;;;3.50;2.25;;;;;;;;5101226;27;51102;-45
2022/10/11 01:14:05;;;;;;;;;3.75;2.00;;;;;;;;5100869;27;51473;-45
2022/10/11 01:16:54;;;;;;;;;2.25;2.25;;;;;;;;5090491;27;51150;-47
2022/10/11 01:19:56;;;;;;;;;2.00;2.00;;;;;;;;5080399;27;51323;-45
2022/10/11 01:22:51;;;;;;;;;3.00;2.00;;;;;;;;5095956;27;51072;-45
2022/10/11 01:25:51;;;;;;;;;2.00;2.00;;;;;;;;5100643;27;51199;-45
2022/10/11 01:28:35;;;;;;;;;3.00;3.00;;;;;;;;5100112;27;51230;-47
2022/10/11 01:31:25;;;;;;;;;3.50;3.50;;;;;;;;5100342;27;51235;-48
2022/10/11 01:34:22;;;;;;;;;2.25;2.25;;;;;;;;5100457;27;51827;-45
2022/10/11 01:37:12;;;;;;;;;3.50;1.75;;;;;;;;5100607;27;50998;-47
2022/10/11 01:40:01;;;;;;;;;1.00;1.00;;;;;;;;5100201;27;51060;-47
2022/10/11 01:42:46;;;;;;;;;3.50;2.00;;;;;;;;5084665;27;51112;-47
2022/10/11 01:45:32;;;;;;;;;3.25;1.75;;;;;;;;5100518;27;51282;-46
2022/10/11 01:48:17;;;;;;;;;4.00;2.00;;;;;;;;5099536;27;51154;-47
2022/10/11 01:51:02;;;;;;;;;3.75;2.50;;;;;;;;5100863;27;51161;-48
2022/10/11 01:53:47;;;;;;;;;1.75;1.50;;;;;;;;5100008;27;51159;-47
2022/10/11 01:56:46;;;;;;;;;4.00;1.75;;;;;;;;5100002;27;51129;-46
2022/10/11 01:59:49;;;;;;;;;3.75;1.75;;;;;;;;5100259;27;51261;-46
2022/10/11 02:02:47;;;;;;;;;1.00;1.00;;;;;;;;5100020;27;51073;-47
2022/10/11 02:05:31;;;;;;;;;1.50;1.00;;;;;;;;5099753;27;51172;-46
2022/10/11 02:08:18;;;;;;;;;3.00;1.75;;;;;;;;5099477;27;51074;-45
2022/10/11 02:11:15;;;;;;;;;2.50;2.00;;;;;;;;5099983;27;51488;-45
2022/10/11 02:14:06;;;;;;;;;2.25;2.25;;;;;;;;5099636;27;51054;-45
2022/10/11 02:16:55;;;;;;;;;2.00;1.75;;;;;;;;5100027;27;51085;-47
2022/10/11 02:19:44;;;;;;;;;4.00;1.00;;;;;;;;5100019;27;51501;-46
2022/10/11 02:22:35;;;;;;;;;1.75;1.75;;;;;;;;5099786;27;51567;-46
2022/10/11 02:25:22;;;;;;;;;3.25;1.50;;;;;;;;5099412;27;51366;-45
2022/10/11 02:28:13;;;;;;;;;2.75;1.50;;;;;;;;5099995;27;51092;-46
2022/10/11 02:30:59;;;;;;;;;2.00;2.00;;;;;;;;5099730;27;51450;-45
2022/10/11 02:33:57;;;;;;;;;2.00;2.00;;;;;;;;5099469;27;51126;-46
2022/10/11 02:36:41;;;;;;;;;2.00;2.00;;;;;;;;5099744;27;51092;-47
2022/10/11 02:39:30;;;;;;;;;3.50;2.25;;;;;;;;5099348;27;51131;-46
2022/10/11 02:42:20;;;;;;;;;3.00;2.00;;;;;;;;5093288;27;50944;-45
2022/10/11 02:45:25;;;;;;;;;1.75;1.75;;;;;;;;5092912;27;51337;-46
2022/10/11 02:48:10;;;;;;;;;5.25;3.00;;;;;;;;5086078;27;51371;-45
2022/10/11 02:50:55;;;;;;;;;2.00;2.00;;;;;;;;5099556;27;51092;-48
2022/10/11 02:53:40;;;;;;;;;2.50;2.50;;;;;;;;5098460;27;51106;-49
2022/10/11 02:56:24;;;;;;;;;5.00;2.00;;;;;;;;5082714;27;51056;-47
2022/10/11 02:59:09;;;;;;;;;3.00;3.00;;;;;;;;5078555;27;51165;-46
2022/10/11 03:01:53;;;;;;;;;5.00;2.50;;;;;;;;5079328;27;51099;-45
2022/10/11 03:04:37;;;;;;;;;8.00;6.00;;;;;;;;5092641;27;51158;-45
2022/10/11 03:07:22;;;;;;;;;3.75;3.75;;;;;;;;5099404;27;51049;-45
2022/10/11 03:10:07;;;;;;;;;4.50;2.00;;;;;;;;5099436;27;51368;-46
2022/10/11 03:12:51;;;;;;;;;6.00;5.50;;;;;;;;5086999;27;51059;-45
2022/10/11 03:15:35;;;;;;;;;7.25;3.75;;;;;;;;5096501;27;51167;-45
2022/10/11 03:18:20;;;;;;;;;11.00;6.50;;;;;;;;5100057;27;51121;-45
2022/10/11 03:21:04;;;;;;;;;5.00;5.00;;;;;;;;5102884;27;51057;-46
2022/10/11 03:23:49;;;;;;;;;7.25;5.00;;;;;;;;5103172;27;51017;-46
2022/10/11 03:26:33;;;;;;;;;6.00;5.25;;;;;;;;5103569;27;51064;-46
2022/10/11 03:29:18;;;;;;;;;6.50;4.00;;;;;;;;5103496;27;51147;-45
2022/10/11 03:32:02;;;;;;;;;3.00;3.00;;;;;;;;5103049;27;51014;-46
2022/10/11 03:34:47;;;;;;;;;4.00;4.00;;;;;;;;5103004;27;51145;-46
2022/10/11 03:37:32;;;;;;;;;8.50;4.00;;;;;;;;5103371;27;51238;-46
2022/10/11 03:40:16;;;;;;;;;3.00;3.00;;;;;;;;5102870;27;51160;-47
2022/10/11 03:43:00;;;;;;;;;3.00;3.00;;;;;;;;5103204;27;51072;-45
2022/10/11 03:45:45;;;;;;;;;5.00;2.50;;;;;;;;5102943;27;51974;-46
2022/10/11 03:48:29;;;;;;;;;3.00;3.00;;;;;;;;5102930;27;51141;-45
2022/10/11 03:51:14;;;;;;;;;1.25;1.25;;;;;;;;5102756;27;51524;-46
2022/10/11 03:53:58;;;;;;;;;3.75;2.50;;;;;;;;5094118;27;51503;-46
2022/10/11 03:56:43;;;;;;;;;1.00;1.00;;;;;;;;5097221;27;51259;-46
2022/10/11 03:59:27;;;;;;;;;5.00;1.00;;;;;;;;5086853;27;51189;-45
2022/10/11 04:02:12;;;;;;;;;1.00;1.00;;;;;;;;5102519;27;51062;-46
2022/10/11 04:04:56;;;;;;;;;3.00;2.00;;;;;;;;5102498;27;51254;-46
2022/10/11 04:07:40;;;;;;;;;2.25;1.75;;;;;;;;5102876;27;51109;-45
2022/10/11 04:10:25;;;;;;;;;3.00;3.00;;;;;;;;5102102;27;51054;-45
2022/10/11 04:13:10;;;;;;;;;4.00;2.00;;;;;;;;5102592;27;50989;-46
2022/10/11 04:15:54;;;;;;;;;7.00;5.00;;;;;;;;5097684;27;51147;-46
2022/10/11 04:18:39;;;;;;;;;3.50;1.00;;;;;;;;5084378;27;51188;-45
2022/10/11 04:21:23;;;;;;;;;2.25;2.25;;;;;;;;5082215;27;51070;-46
2022/10/11 04:24:09;;;;;;;;;10.25;10.00;;;;;;;;5081772;27;51082;-45
2022/10/11 04:26:54;;;;;;;;;12.75;12.25;;;;;;;;5093980;27;51436;-45
2022/10/11 04:29:38;;;;;;;;;3.50;2.00;;;;;;;;5101954;27;51100;-46
2022/10/11 04:32:22;;;;;;;;;4.00;2.50;;;;;;;;5102460;27;51196;-45
2022/10/11 04:35:07;;;;;;;;;3.50;2.00;;;;;;;;5101946;27;51558;-46
2022/10/11 04:37:51;;;;;;;;;4.00;2.25;;;;;;;;5101568;27;51072;-45
2022/10/11 04:40:36;;;;;;;;;2.25;2.25;;;;;;;;5102139;27;51421;-46
2022/10/11 04:43:20;;;;;;;;;9.25;8.00;;;;;;;;5101737;27;51041;-46
2022/10/11 04:46:05;;;;;;;;;19.25;15.00;;;;;;;;5089770;27;51165;-47
2022/10/11 04:48:50;;;;;;;;;9.75;6.75;;;;;;;;5080809;27;51396;-47
2022/10/11 04:51:34;;;;;;;;;5.75;4.25;;;;;;;;5081123;27;51173;-47
2022/10/11 04:54:18;;;;;;;;;3.50;3.25;;;;;;;;5081131;27;51234;-46
2022/10/11 04:57:03;;;;;;;;;3.25;2.00;;;;;;;;5081155;27;51126;-46
2022/10/11 04:59:47;;;;;;;;;2.75;1.75;;;;;;;;5081050;27;51133;-46
2022/10/11 05:02:32;;;;;;;;;2.50;2.25;;;;;;;;5083047;27;51045;-45
2022/10/11 05:05:16;;;;;;;;;6.50;4.00;;;;;;;;5080873;27;50995;-47
2022/10/11 05:08:01;;;;;;;;;3.75;3.25;;;;;;;;5080631;27;51082;-47
2022/10/11 05:10:55;;;;;;;;;4.50;4.00;;;;;;;;5081176;27;51117;-46
2022/10/11 05:13:40;;;;;;;;;5.25;5.00;;;;;;;;5080710;27;51148;-46
2022/10/11 05:16:24;;;;;;;;;7.00;4.75;;;;;;;;5076435;27;51672;-45
2022/10/11 05:19:09;;;;;;;;;13.75;12.25;;;;;;;;5079955;27;51126;-46
2022/10/11 05:21:54;;;;;;;;;20.50;18.75;;;;;;;;5080612;27;51097;-45
2022/10/11 05:24:38;;;;;;;;;31.75;25.00;;;;;;;;5079502;27;51492;-46
2022/10/11 05:27:23;;;;;;;;;30.50;25.00;;;;;;;;5080242;27;51089;-46
2022/10/11 05:30:07;;;;;;;;;31.50;23.75;;;;;;;;5080046;27;51468;-48
2022/10/11 05:32:52;;;;;;;;;27.75;22.50;;;;;;;;5085047;27;51684;-47
2022/10/11 05:35:36;;;;;;;;;31.25;24.25;;;;;;;;5080517;27;51145;-46
2022/10/11 05:38:21;;;;;;;;;40.50;32.75;;;;;;;;5080187;27;51166;-46
2022/10/11 05:41:07;;;;;;;;;44.25;35.25;;;;;;;;5079922;27;51126;-45
2022/10/11 05:43:52;;;;;;;;;47.00;38.25;;;;;;;;5079052;27;51051;-46
2022/10/11 05:46:36;;;;;;;;;49.50;39.00;;;;;;;;5088603;27;51066;-46
2022/10/11 05:49:21;;;;;;;;;60.25;46.50;;;;;;;;5087877;27;51055;-45
2022/10/11 05:52:07;;;;;;;;;63.50;50.50;;;;;;;;5088783;27;51956;-52
2022/10/11 05:54:52;;;;;;;;;64.50;50.50;;;;;;;;5082296;27;51531;-48
2022/10/11 05:57:36;;;;;;;;;66.25;51.50;;;;;;;;5093677;27;51117;-49
2022/10/11 06:00:21;;;;;;;;;58.00;47.50;;;;;;;;5083608;27;51183;-51
2022/10/11 06:03:06;;;;;;;;;55.75;45.50;;;;;;;;5090155;27;51046;-52
2022/10/11 06:05:50;;;;;;;;;56.75;44.00;;;;;;;;5095079;27;51449;-50
2022/10/11 06:08:35;;;;;;;;;54.25;44.25;;;;;;;;5091790;27;51386;-54
2022/10/11 06:11:21;;;;;;;;;56.25;43.75;;;;;;;;5079583;27;51141;-51
2022/10/11 06:14:05;;;;;;;;;50.50;40.75;;;;;;;;5084252;27;51675;-48
2022/10/11 06:16:49;;;;;;;;;34.50;29.75;;;;;;;;5090870;27;51129;-51
2022/10/11 06:19:34;;;;;;;;;45.50;36.75;;;;;;;;5088921;27;51544;-48
2022/10/11 06:22:18;;;;;;;;;38.00;31.00;;;;;;;;5083587;27;51167;-49
2022/10/11 06:25:03;;;;;;;;;33.25;30.25;;;;;;;;5086546;27;51075;-47
2022/10/11 06:27:47;;;;;;;;;33.25;30.00;;;;;;;;5096266;27;51420;-52
2022/10/11 06:30:32;;;;;;;;;26.25;23.00;;;;;;;;5099661;27;51450;-49
2022/10/11 06:33:16;;;;;;;;;13.25;12.50;;;;;;;;5086043;27;51231;-50
2022/10/11 06:36:10;;;;;;;;;8.00;7.00;;;;;;;;5079345;27;51115;-50
2022/10/11 06:38:55;;;;;;;;;2.00;2.00;;;;;;;;5079017;27;51524;-52
2022/10/11 06:41:39;;;;;;;;;4.00;3.00;;;;;;;;5079474;27;51075;-47
2022/10/11 06:44:24;;;;;;;;;3.00;3.00;;;;;;;;5094419;27;51116;-49
2022/10/11 06:47:09;;;;;;;;;3.50;2.75;;;;;;;;5083313;27;51111;-48
2022/10/11 06:49:53;;;;;;;;;3.75;2.50;;;;;;;;5079537;27;51512;-51
2022/10/11 06:52:38;;;;;;;;;4.00;3.25;;;;;;;;5079392;27;51644;-53
2022/10/11 06:55:22;;;;;;;;;5.25;5.00;;;;;;;;5089884;27;51169;-51
2022/10/11 06:58:07;;;;;;;;;5.25;5.25;;;;;;;;5098386;27;51156;-52
2022/10/11 07:00:51;;;;;;;;;4.50;3.50;;;;;;;;5103767;27;51072;-49
2022/10/11 07:03:35;;;;;;;;;4.00;3.00;;;;;;;;5088824;27;51202;-48
2022/10/11 07:06:21;;;;;;;;;6.50;1.50;;;;;;;;5080529;27;52389;-53
2022/10/11 07:09:06;;;;;;;;;3.00;3.00;;;;;;;;5081330;27;51487;-49
2022/10/11 07:11:50;;;;;;;;;3.75;2.75;;;;;;;;5082557;27;51047;-47
2022/10/11 07:14:34;;;;;;;;;7.00;3.75;;;;;;;;5098201;27;51086;-52
2022/10/11 07:17:19;;;;;;;;;8.00;6.00;;;;;;;;5087602;27;51043;-52
2022/10/11 07:20:04;;;;;;;;;3.00;3.00;;;;;;;;5082405;27;51309;-48
2022/10/11 07:22:49;;;;;;;;;2.50;1.00;;;;;;;;5096422;27;51191;-50
2022/10/11 07:25:33;;;;;;;;;0.75;0.50;;;;;;;;5102256;27;51171;-53
2022/10/11 07:28:18;;;;;;;;;0.50;0.50;;;;;;;;5100413;27;51176;-49
2022/10/11 07:31:03;;;;;;;;;3.50;1.00;;;;;;;;5101164;27;51153;-48
2022/10/11 07:33:48;;;;;;;;;4.00;2.25;;;;;;;;5101087;27;51294;-51
2022/10/11 07:36:32;;;;;;;;;2.50;1.75;;;;;;;;5093227;27;51105;-54
2022/10/11 07:39:17;;;;;;;;;3.25;3.00;;;;;;;;5102108;27;51140;-50
2022/10/11 07:42:02;;;;;;;;;3.00;2.00;;;;;;;;5071953;27;51015;-49
2022/10/11 07:44:46;;;;;;;;;2.50;1.75;;;;;;;;5093440;27;51597;-48
2022/10/11 07:47:30;;;;;;;;;2.00;2.00;;;;;;;;5085944;27;51287;-51
2022/10/11 07:50:15;;;;;;;;;1.50;1.25;;;;;;;;5095477;27;51330;-50
2022/10/11 07:52:59;;;;;;;;;2.00;2.00;;;;;;;;5081507;27;51501;-50
2022/10/11 07:55:44;;;;;;;;;1.25;0.75;;;;;;;;5081301;27;51062;-50
2022/10/11 07:58:29;;;;;;;;;0.50;0.50;;;;;;;;5079976;27;51527;-49
2022/10/11 08:01:13;;;;;;;;;0.00;0.00;;;;;;;;5081191;27;51267;-49
2022/10/11 08:03:58;;;;;;;;;1.00;1.00;;;;;;;;5079804;27;51047;-50
2022/10/11 08:06:42;;;;;;;;;0.75;0.75;;;;;;;;5082399;27;51104;-51
2022/10/11 08:09:26;;;;;;;;;1.00;0.00;;;;;;;;5082662;27;51424;-54
2022/10/11 08:12:11;;;;;;;;;1.00;0.00;;;;;;;;5088949;27;51293;-52
2022/10/11 08:14:56;;;;;;;;;3.50;1.25;;;;;;;;5098721;27;51130;-50
2022/10/11 08:17:40;;;;;;;;;0.00;0.00;;;;;;;;5085725;27;51093;-48
2022/10/11 08:20:25;;;;;;;;;1.25;0.75;;;;;;;;5084622;27;51184;-51
2022/10/11 08:23:09;;;;;;;;;1.75;0.00;;;;;;;;5087024;27;51090;-50
2022/10/11 08:25:55;;;;;;;;;3.50;1.75;;;;;;;;5100458;27;51164;-50
2022/10/11 08:28:39;;;;;;;;;0.75;0.00;;;;;;;;5102110;27;50983;-50
2022/10/11 08:31:24;;;;;;;;;1.00;1.00;;;;;;;;5087608;27;51163;-49
2022/10/11 08:34:09;;;;;;;;;3.00;1.00;;;;;;;;5080737;27;51049;-55
2022/10/11 08:36:54;;;;;;;;;1.50;1.50;;;;;;;;5081140;27;51142;-51
2022/10/11 08:39:38;;;;;;;;;2.25;2.25;;;;;;;;5097227;27;51105;-49
2022/10/11 08:42:32;;;;;;;;;3.25;2.00;;;;;;;;5092785;27;51133;-48
2022/10/11 08:45:38;;;;;;;;;1.50;0.75;;;;;;;;5101154;27;51131;-51
2022/10/11 08:48:28;;;;;;;;;2.00;0.75;;;;;;;;5086457;27;51334;-51
2022/10/11 08:51:28;;;;;;;;;0.25;0.25;;;;;;;;5100244;27;51081;-48
2022/10/11 08:54:12;;;;;;;;;1.50;1.00;;;;;;;;5084909;27;51081;-52
2022/10/11 08:56:56;;;;;;;;;1.50;0.75;;;;;;;;5100175;27;51036;-49
2022/10/11 08:59:50;;;;;;;;;2.25;0.00;;;;;;;;5096716;27;51295;-50
2022/10/11 09:02:34;;;;;;;;;2.00;0.50;;;;;;;;5092246;27;51055;-52
2022/10/11 09:05:20;;;;;;;;;0.00;0.00;;;;;;;;5093551;27;50993;-49
2022/10/11 09:08:20;;;;;;;;;2.25;2.25;;;;;;;;5080645;27;51529;-50
2022/10/11 09:11:17;;;;;;;;;2.00;2.00;;;;;;;;5080421;27;51183;-52
2022/10/11 09:14:08;;;;;;;;;1.00;0.25;;;;;;;;5085640;27;52158;-52
2022/10/11 09:17:02;;;;;;;;;3.00;2.00;;;;;;;;5080178;27;51192;-52
2022/10/11 09:20:20;;;;;;;;;0.00;0.00;;;;;;;;5079947;27;51167;-47
2022/10/11 09:23:37;;;;;;;;;0.00;0.00;;;;;;;;5099194;27;51172;-52
2022/10/11 09:26:27;;;;;;;;;2.00;0.00;;;;;;;;5066745;27;51369;-51
2022/10/11 09:29:16;;;;;;;;;0.00;0.00;;;;;;;;5080868;27;51122;-52
2022/10/11 09:32:01;;;;;;;;;1.25;0.50;;;;;;;;5082438;27;51101;-49
2022/10/11 09:34:47;;;;;;;;;2.00;0.00;;;;;;;;5082316;27;51401;-52
2022/10/11 09:37:53;;;;;;;;;1.75;1.00;;;;;;;;5083585;27;51161;-50
2022/10/11 09:40:44;;;;;;;;;14.00;12.00;;;;;;;;5075951;27;51467;-51
2022/10/11 09:43:29;;;;;;;;;8.00;7.75;;;;;;;;5080035;27;51135;-49
2022/10/11 09:46:18;;;;;;;;;3.00;1.75;;;;;;;;5079499;27;51070;-54
2022/10/11 09:49:06;;;;;;;;;1.00;0.00;;;;;;;;5083552;27;51112;-52
2022/10/11 09:51:55;;;;;;;;;3.00;3.00;;;;;;;;5100859;27;51174;-50
2022/10/11 09:54:41;;;;;;;;;1.00;1.00;;;;;;;;5081581;27;51128;-53
2022/10/11 09:57:36;;;;;;;;;1.00;1.00;;;;;;;;5088883;27;51087;-48
2022/10/11 10:00:23;;;;;;;;;2.50;2.50;;;;;;;;5079950;27;51129;-52
2022/10/11 10:03:25;;;;;;;;;15.00;12.75;;;;;;;;5096515;27;51101;-50
2022/10/11 10:06:15;;;;;;;;;0.75;0.00;;;;;;;;5094455;27;51202;-46
2022/10/11 10:09:19;;;;;;;;;0.00;0.00;;;;;;;;5079751;27;51153;-49
2022/10/11 10:12:11;;;;;;;;;4.00;0.00;;;;;;;;5082226;27;51176;-52
2022/10/11 10:15:00;;;;;;;;;1.00;1.00;;;;;;;;5078388;27;51129;-53
2022/10/11 10:17:49;;;;;;;;;0.75;0.00;;;;;;;;5081499;27;51123;-51
2022/10/11 10:20:34;;;;;;;;;4.00;2.50;;;;;;;;5099843;27;51013;-49
2022/10/11 10:23:29;;;;;;;;;1.00;0.00;;;;;;;;5100226;27;51151;-50
2022/10/11 10:26:13;;;;;;;;;1.25;1.00;;;;;;;;5091908;27;51168;-49
2022/10/11 10:28:59;;;;;;;;;0.25;0.00;;;;;;;;5101397;27;51267;-49
2022/10/11 10:31:49;;;;;;;;;0.00;0.00;;;;;;;;5104338;27;51542;-50
2022/10/11 10:34:35;;;;;;;;;0.00;0.00;;;;;;;;5103971;27;50994;-47
2022/10/11 10:37:19;;;;;;;;;3.25;0.00;;;;;;;;5090526;27;51504;-48
2022/10/11 10:40:17;;;;;;;;;0.00;0.00;;;;;;;;5099022;27;51242;-48
2022/10/11 10:43:01;;;;;;;;;0.75;0.00;;;;;;;;5103164;27;51328;-47
2022/10/11 10:46:04;;;;;;;;;1.00;0.00;;;;;;;;5103417;27;51144;-45
2022/10/11 10:49:08;;;;;;;;;0.25;0.25;;;;;;;;5093444;27;51109;-46
2022/10/11 10:52:02;;;;;;;;;2.75;2.75;;;;;;;;5065766;27;51510;-45
2022/10/11 10:54:58;;;;;;;;;1.00;1.00;;;;;;;;5090647;27;51131;-46
2022/10/11 10:58:01;;;;;;;;;1.25;0.00;;;;;;;;5085498;27;51092;-44
2022/10/11 11:00:47;;;;;;;;;1.00;0.50;;;;;;;;5083543;27;51108;-45
2022/10/11 11:03:54;;;;;;;;;4.00;3.50;;;;;;;;5083477;27;51474;-45
2022/10/11 11:06:46;;;;;;;;;1.00;0.00;;;;;;;;5091446;27;51066;-45
2022/10/11 11:09:45;;;;;;;;;0.00;0.00;;;;;;;;5092033;27;51268;-43
2022/10/11 11:12:44;;;;;;;;;0.00;0.00;;;;;;;;5099986;27;51211;-44
2022/10/11 11:15:52;;;;;;;;;0.00;0.00;;;;;;;;5098916;27;51073;-42
2022/10/11 11:18:36;;;;;;;;;2.75;0.25;;;;;;;;5091338;27;51779;-43
2022/10/11 11:21:30;;;;;;;;;1.25;1.00;;;;;;;;5082668;27;51109;-43
2022/10/11 11:24:40;;;;;;;;;5.00;5.00;;;;;;;;5085717;27;51355;-43
2022/10/11 11:27:27;;;;;;;;;1.75;1.75;;;;;;;;5084068;27;51065;-43
2022/10/11 11:30:31;;;;;;;;;5.00;3.00;;;;;;;;5082518;27;51163;-42
2022/10/11 11:33:19;;;;;;;;;3.50;2.00;;;;;;;;5078623;27;51062;-41
2022/10/11 11:36:23;;;;;;;;;6.75;5.00;;;;;;;;5095689;27;51136;-42
2022/10/11 11:39:15;;;;;;;;;10.00;9.00;;;;;;;;5089021;27;51423;-42
2022/10/11 11:42:06;;;;;;;;;7.25;5.75;;;;;;;;5084116;27;51307;-41
2022/10/11 11:44:51;;;;;;;;;7.75;6.00;;;;;;;;5083610;27;51192;-43
2022/10/11 11:47:39;;;;;;;;;9.75;8.25;;;;;;;;5087975;27;51096;-42
2022/10/11 11:50:23;;;;;;;;;1.00;1.00;;;;;;;;5090892;27;51142;-43
2022/10/11 11:53:31;;;;;;;;;1.75;1.75;;;;;;;;5095155;27;51302;-42
2022/10/11 11:56:18;;;;;;;;;4.50;2.00;;;;;;;;5101617;27;51672;-43
2022/10/11 11:59:11;;;;;;;;;1.00;1.00;;;;;;;;5096954;27;51092;-42
2022/10/11 12:01:55;;;;;;;;;0.25;0.25;;;;;;;;5085937;27;51264;-42
2022/10/11 12:04:41;;;;;;;;;3.50;1.25;;;;;;;;5084180;27;51057;-42
2022/10/11 12:07:26;;;;;;;;;0.00;0.00;;;;;;;;5091911;27;51172;-41
2022/10/11 12:10:25;;;;;;;;;1.00;1.00;;;;;;;;5084206;27;51542;-42
2022/10/11 12:13:16;;;;;;;;;1.50;0.25;;;;;;;;5085971;27;51163;-42
2022/10/11 12:16:09;;;;;;;;;0.50;0.00;;;;;;;;5085695;27;51620;-42
2022/10/11 12:18:53;;;;;;;;;0.75;0.25;;;;;;;;5101935;27;50954;-41
2022/10/11 12:21:39;;;;;;;;;0.00;0.00;;;;;;;;5101060;27;51031;-44
2022/10/11 12:24:23;;;;;;;;;2.50;1.25;;;;;;;;5102135;27;51052;-41
2022/10/11 12:27:28;;;;;;;;;2.00;1.00;;;;;;;;5081074;27;51175;-44
2022/10/11 12:30:31;;;;;;;;;1.00;1.00;;;;;;;;5096379;27;51191;-44
2022/10/11 12:33:20;;;;;;;;;1.00;1.00;;;;;;;;5102140;27;50997;-44
2022/10/11 12:36:23;;;;;;;;;1.50;1.50;;;;;;;;5091178;27;51146;-44
2022/10/11 12:39:19;;;;;;;;;1.00;1.00;;;;;;;;5100172;27;51138;-43
2022/10/11 12:42:18;;;;;;;;;2.50;1.50;;;;;;;;5081767;27;51138;-44
2022/10/11 12:45:12;;;;;;;;;5.50;2.50;;;;;;;;5085709;27;51104;-42
2022/10/11 12:48:05;;;;;;;;;4.50;2.50;;;;;;;;5083991;27;51459;-42
2022/10/11 12:50:53;;;;;;;;;2.00;2.00;;;;;;;;5087935;27;51168;-43
2022/10/11 12:53:58;;;;;;;;;0.00;0.00;;;;;;;;5080127;27;51345;-43
2022/10/11 12:57:00;;;;;;;;;2.50;0.75;;;;;;;;5080869;27;50979;-42
2022/10/11 12:59:45;;;;;;;;;4.00;2.00;;;;;;;;5100678;27;51105;-43
2022/10/11 13:02:43;;;;;;;;;2.25;2.00;;;;;;;;5097142;27;51147;-42
2022/10/11 13:05:46;;;;;;;;;1.50;0.75;;;;;;;;5082538;27;51235;-42
2022/10/11 13:08:32;;;;;;;;;1.00;1.00;;;;;;;;5084356;27;51106;-41
2022/10/11 13:11:20;;;;;;;;;3.50;1.75;;;;;;;;5087648;27;51401;-41
2022/10/11 13:14:07;;;;;;;;;3.75;2.50;;;;;;;;5088429;27;51205;-46
2022/10/11 13:17:03;;;;;;;;;3.00;0.25;;;;;;;;5056343;28;51061;-47
2022/10/11 13:19:50;;;;;;;;;2.75;1.75;;;;;;;;5050313;28;51062;-47
2022/10/11 13:22:38;;;;;;;;;3.50;0.50;;;;;;;;5040132;28;51015;-46
2022/10/11 13:25:26;;;;;;;;;1.75;1.00;;;;;;;;5059116;28;51037;-48
2022/10/11 13:28:11;;;;;;;;;2.00;1.00;;;;;;;;5046448;28;51489;-49
2022/10/11 13:30:56;;;;;;;;;1.00;1.00;;;;;;;;5053213;28;51145;-48
2022/10/11 13:33:41;;;;;;;;;2.00;2.00;;;;;;;;5039320;28;51111;-50
2022/10/11 13:36:26;;;;;;;;;1.75;1.75;;;;;;;;5039938;28;51092;-45
2022/10/11 13:39:30;;;;;;;;;3.25;0.75;;;;;;;;5052369;28;51971;-46
2022/10/11 13:42:16;;;;;;;;;1.75;1.75;;;;;;;;5046847;28;51198;-46
2022/10/11 13:45:01;;;;;;;;;1.50;1.50;;;;;;;;5048832;28;51342;-46
2022/10/11 13:47:46;;;;;;;;;1.75;1.75;;;;;;;;5053931;28;51081;-45
2022/10/11 13:50:32;;;;;;;;;0.75;0.75;;;;;;;;5052021;28;51186;-45
2022/10/11 13:53:16;;;;;;;;;4.00;1.50;;;;;;;;5043190;28;50972;-46
2022/10/11 13:56:02;;;;;;;;;3.25;0.00;;;;;;;;5044694;28;52111;-46
2022/10/11 13:58:47;;;;;;;;;0.50;0.50;;;;;;;;5056516;28;51182;-47
2022/10/11 14:01:37;;;;;;;;;1.00;1.00;;;;;;;;5043810;28;51132;-49
2022/10/11 14:04:22;;;;;;;;;1.00;1.00;;;;;;;;5039393;28;51570;-49
2022/10/11 14:07:16;;;;;;;;;2.75;2.00;;;;;;;;5050670;28;51141;-47
2022/10/11 14:10:01;;;;;;;;;2.00;1.00;;;;;;;;5053098;28;51115;-49
2022/10/11 14:12:56;;;;;;;;;2.00;1.75;;;;;;;;5050990;28;51032;-50
2022/10/11 14:15:40;;;;;;;;;2.00;1.25;;;;;;;;5070298;27;51332;-47
2022/10/11 14:18:35;;;;;;;;;1.00;1.00;;;;;;;;5098473;27;52384;-49
2022/10/11 14:21:19;;;;;;;;;5.00;2.00;;;;;;;;5076675;27;51441;-52
2022/10/11 14:24:05;;;;;;;;;1.00;1.00;;;;;;;;5091201;27;51153;-46
2022/10/11 14:26:50;;;;;;;;;1.25;1.25;;;;;;;;5077996;27;51288;-49
2022/10/11 14:29:38;;;;;;;;;1.00;0.50;;;;;;;;5080135;27;51801;-48
2022/10/11 14:32:28;;;;;;;;;0.75;0.75;;;;;;;;5079537;27;51161;-49
2022/10/11 14:35:21;;;;;;;;;0.75;0.75;;;;;;;;5084677;27;51320;-48
2022/10/11 14:38:05;;;;;;;;;1.50;1.50;;;;;;;;5087175;27;51162;-50
2022/10/11 14:40:49;;;;;;;;;2.75;2.25;;;;;;;;5083562;27;51473;-47
2022/10/11 14:43:34;;;;;;;;;1.50;0.75;;;;;;;;5082941;27;51326;-48
2022/10/11 14:46:23;;;;;;;;;1.25;1.25;;;;;;;;5080660;27;51367;-47
2022/10/11 14:49:27;;;;;;;;;2.50;1.25;;;;;;;;5084016;27;51126;-47
2022/10/11 14:52:11;;;;;;;;;3.00;1.75;;;;;;;;5088373;27;51147;-47
2022/10/11 14:54:56;;;;;;;;;3.50;2.00;;;;;;;;5078861;27;51135;-49
2022/10/11 14:57:40;;;;;;;;;4.00;2.00;;;;;;;;5082342;27;51347;-49
2022/10/11 15:00:26;;;;;;;;;1.00;1.00;;;;;;;;5082831;27;51435;-48
2022/10/11 15:03:11;;;;;;;;;4.25;2.00;;;;;;;;5079076;27;51159;-47
2022/10/11 15:05:55;;;;;;;;;1.25;1.25;;;;;;;;5091863;27;51068;-48
2022/10/11 15:08:39;;;;;;;;;1.75;1.75;;;;;;;;5080982;27;50989;-47
2022/10/11 15:11:24;;;;;;;;;2.50;2.50;;;;;;;;5086423;27;51036;-47
2022/10/11 15:14:09;;;;;;;;;3.00;2.00;;;;;;;;5091595;27;51192;-46
2022/10/11 15:16:55;;;;;;;;;1.00;1.00;;;;;;;;5041386;28;51483;-49
2022/10/11 15:19:39;;;;;;;;;2.75;1.50;;;;;;;;5053181;28;51201;-46
2022/10/11 15:22:23;;;;;;;;;2.25;2.00;;;;;;;;5047309;28;51117;-48
2022/10/11 15:25:08;;;;;;;;;2.25;1.75;;;;;;;;5042146;28;51110;-46
2022/10/11 15:27:52;;;;;;;;;7.75;1.75;;;;;;;;5062051;28;51384;-46
2022/10/11 15:30:37;;;;;;;;;2.00;2.00;;;;;;;;5069991;27;51153;-47
2022/10/11 15:33:21;;;;;;;;;2.50;2.50;;;;;;;;5052141;28;51185;-46
2022/10/11 15:36:07;;;;;;;;;4.00;2.75;;;;;;;;5049696;28;51120;-47
2022/10/11 15:38:52;;;;;;;;;2.00;2.00;;;;;;;;5051017;28;51136;-49
2022/10/11 15:41:36;;;;;;;;;3.00;2.00;;;;;;;;5049052;28;51140;-47
2022/10/11 15:44:21;;;;;;;;;1.75;1.75;;;;;;;;5041990;28;51217;-47
2022/10/11 15:47:05;;;;;;;;;5.75;2.25;;;;;;;;5041045;28;51211;-47
2022/10/11 15:49:51;;;;;;;;;2.50;1.50;;;;;;;;5039001;28;51427;-47
2022/10/11 15:52:35;;;;;;;;;0.75;0.75;;;;;;;;5046704;28;51151;-47
2022/10/11 15:55:20;;;;;;;;;2.25;1.75;;;;;;;;5038583;28;51127;-49
2022/10/11 15:58:04;;;;;;;;;1.00;1.00;;;;;;;;5043379;28;51032;-46
2022/10/11 16:00:52;;;;;;;;;1.75;1.00;;;;;;;;5053891;28;51489;-46
2022/10/11 16:03:37;;;;;;;;;3.00;3.00;;;;;;;;5040828;28;51221;-47
2022/10/11 16:06:22;;;;;;;;;5.00;2.25;;;;;;;;5046708;28;51093;-48
2022/10/11 16:09:06;;;;;;;;;2.50;1.75;;;;;;;;5048096;28;51523;-49
2022/10/11 16:11:50;;;;;;;;;0.00;0.00;;;;;;;;5042727;28;51198;-50
2022/10/11 16:14:35;;;;;;;;;1.00;1.00;;;;;;;;5060041;27;51365;-49
2022/10/11 16:17:19;;;;;;;;;1.50;1.50;;;;;;;;5101206;27;51127;-51
2022/10/11 16:20:05;;;;;;;;;3.00;2.50;;;;;;;;5092494;27;50991;-49
2022/10/11 16:22:50;;;;;;;;;4.75;3.75;;;;;;;;5081364;27;51047;-47
2022/10/11 16:25:35;;;;;;;;;3.00;1.75;;;;;;;;5081521;27;51164;-48
2022/10/11 16:28:19;;;;;;;;;2.75;2.75;;;;;;;;5081461;27;51194;-47
2022/10/11 16:31:12;;;;;;;;;0.25;0.25;;;;;;;;5084425;27;51179;-49
2022/10/11 16:33:56;;;;;;;;;4.00;2.50;;;;;;;;5085380;27;51128;-48
2022/10/11 16:36:43;;;;;;;;;4.00;1.00;;;;;;;;5087484;27;51155;-48
2022/10/11 16:39:28;;;;;;;;;3.75;2.50;;;;;;;;5087141;27;51312;-47
2022/10/11 16:42:12;;;;;;;;;4.25;2.50;;;;;;;;5080154;27;51154;-48
2022/10/11 16:44:56;;;;;;;;;2.00;2.00;;;;;;;;5092892;27;51134;-47